sensor_id;sensor_type;location;lat;lon;timestamp;P1;durP1;ratioP1;P2;durP2;ratioP2
18879;SDS011;9572;52.378;13.404;2023-04-10T00:01:10;34.97;;;20.63;;
18879;SDS011;9572;52.378;13.404;2023-04-10T00:03:37;38.57;;;21.90;;
18879;SDS011;9572;52.378;13.404;2023-04-10T00:06:04;36.00;;;20.70;;
18879;SDS011;9572;52.378;13.404;2023-04-10T00:08:31;33.73;;;21.07;;
18879;SDS011;9572;52.378;13.404;2023-04-10T00:10:59;38.00;;;21.00;;
18879;SDS011;9572;52.378;13.404;2023-04-10T00:13:26;36.40;;;20.77;;
18879;SDS011;9572;52.378;13.404;2023-04-10T00:15:53;34.27;;;20.63;;
18879;SDS011;9572;52.378;13.404;2023-04-10T00:18:20;37.07;;;21.33;;
18879;SDS011;9572;52.378;13.404;2023-04-10T00:20:47;37.37;;;20.87;;
18879;SDS011;9572;52.378;13.404;2023-04-10T00:23:14;41.30;;;24.00;;
18879;SDS011;9572;52.378;13.404;2023-04-10T00:25:41;38.83;;;22.60;;
18879;SDS011;9572;52.378;13.404;2023-04-10T00:28:09;38.87;;;21.70;;
18879;SDS011;9572;52.378;13.404;2023-04-10T00:30:36;39.33;;;22.27;;
18879;SDS011;9572;52.378;13.404;2023-04-10T00:33:03;35.07;;;20.80;;
18879;SDS011;9572;52.378;13.404;2023-04-10T00:35:30;37.53;;;21.17;;
18879;SDS011;9572;52.378;13.404;2023-04-10T00:37:56;36.70;;;20.83;;
18879;SDS011;9572;52.378;13.404;2023-04-10T00:40:23;38.50;;;21.33;;
18879;SDS011;9572;52.378;13.404;2023-04-10T00:42:51;37.63;;;21.57;;
18879;SDS011;9572;52.378;13.404;2023-04-10T00:45:19;40.10;;;23.77;;
18879;SDS011;9572;52.378;13.404;2023-04-10T00:47:46;37.83;;;21.90;;
18879;SDS011;9572;52.378;13.404;2023-04-10T00:50:13;34.90;;;20.70;;
18879;SDS011;9572;52.378;13.404;2023-04-10T00:52:40;35.07;;;20.97;;
18879;SDS011;9572;52.378;13.404;2023-04-10T00:55:07;47.43;;;25.23;;
18879;SDS011;9572;52.378;13.404;2023-04-10T00:57:35;39.97;;;24.10;;
18879;SDS011;9572;52.378;13.404;2023-04-10T01:00:04;46.67;;;26.70;;
18879;SDS011;9572;52.378;13.404;2023-04-10T01:02:33;42.03;;;25.47;;
18879;SDS011;9572;52.378;13.404;2023-04-10T01:05:00;44.13;;;25.57;;
18879;SDS011;9572;52.378;13.404;2023-04-10T01:07:29;42.93;;;24.50;;
18879;SDS011;9572;52.378;13.404;2023-04-10T01:10:04;43.90;;;24.10;;
18879;SDS011;9572;52.378;13.404;2023-04-10T01:12:43;48.53;;;26.93;;
18879;SDS011;9572;52.378;13.404;2023-04-10T01:15:19;44.93;;;24.23;;
18879;SDS011;9572;52.378;13.404;2023-04-10T01:17:49;43.33;;;24.77;;
18879;SDS011;9572;52.378;13.404;2023-04-10T01:20:21;48.23;;;27.90;;
18879;SDS011;9572;52.378;13.404;2023-04-10T01:22:58;41.67;;;25.03;;
18879;SDS011;9572;52.378;13.404;2023-04-10T01:25:37;40.53;;;22.43;;
18879;SDS011;9572;52.378;13.404;2023-04-10T01:28:10;42.03;;;23.27;;
18879;SDS011;9572;52.378;13.404;2023-04-10T01:30:51;32.30;;;20.87;;
18879;SDS011;9572;52.378;13.404;2023-04-10T01:33:22;33.70;;;19.57;;
18879;SDS011;9572;52.378;13.404;2023-04-10T01:35:55;30.57;;;18.90;;
18879;SDS011;9572;52.378;13.404;2023-04-10T01:38:25;38.10;;;21.60;;
18879;SDS011;9572;52.378;13.404;2023-04-10T01:40:55;36.13;;;21.23;;
18879;SDS011;9572;52.378;13.404;2023-04-10T01:43:25;33.93;;;20.40;;
18879;SDS011;9572;52.378;13.404;2023-04-10T01:45:55;32.93;;;19.97;;
18879;SDS011;9572;52.378;13.404;2023-04-10T01:48:24;33.10;;;19.97;;
18879;SDS011;9572;52.378;13.404;2023-04-10T01:50:51;35.17;;;21.30;;
18879;SDS011;9572;52.378;13.404;2023-04-10T01:53:19;37.37;;;22.63;;
18879;SDS011;9572;52.378;13.404;2023-04-10T01:55:48;33.67;;;19.23;;
18879;SDS011;9572;52.378;13.404;2023-04-10T01:58:17;33.57;;;18.90;;
18879;SDS011;9572;52.378;13.404;2023-04-10T02:00:44;39.10;;;21.17;;
18879;SDS011;9572;52.378;13.404;2023-04-10T02:03:13;42.17;;;22.53;;
18879;SDS011;9572;52.378;13.404;2023-04-10T02:05:42;35.13;;;21.77;;
18879;SDS011;9572;52.378;13.404;2023-04-10T02:08:19;44.13;;;24.03;;
18879;SDS011;9572;52.378;13.404;2023-04-10T02:10:53;35.77;;;21.43;;
18879;SDS011;9572;52.378;13.404;2023-04-10T02:13:27;42.00;;;22.37;;
18879;SDS011;9572;52.378;13.404;2023-04-10T02:15:56;36.37;;;22.27;;
18879;SDS011;9572;52.378;13.404;2023-04-10T02:18:30;39.67;;;21.97;;
18879;SDS011;9572;52.378;13.404;2023-04-10T02:20:58;44.07;;;22.67;;
18879;SDS011;9572;52.378;13.404;2023-04-10T02:23:26;35.63;;;21.00;;
18879;SDS011;9572;52.378;13.404;2023-04-10T02:25:53;34.00;;;20.47;;
18879;SDS011;9572;52.378;13.404;2023-04-10T02:28:21;36.90;;;21.03;;
18879;SDS011;9572;52.378;13.404;2023-04-10T02:30:48;37.03;;;21.93;;
18879;SDS011;9572;52.378;13.404;2023-04-10T02:33:14;37.53;;;21.03;;
18879;SDS011;9572;52.378;13.404;2023-04-10T02:35:43;40.23;;;22.00;;
18879;SDS011;9572;52.378;13.404;2023-04-10T02:38:09;41.47;;;23.53;;
18879;SDS011;9572;52.378;13.404;2023-04-10T02:40:36;37.80;;;20.13;;
18879;SDS011;9572;52.378;13.404;2023-04-10T02:43:03;37.63;;;21.67;;
18879;SDS011;9572;52.378;13.404;2023-04-10T02:45:30;42.87;;;23.20;;
18879;SDS011;9572;52.378;13.404;2023-04-10T02:47:57;49.00;;;26.37;;
18879;SDS011;9572;52.378;13.404;2023-04-10T02:50:24;49.23;;;26.60;;
18879;SDS011;9572;52.378;13.404;2023-04-10T02:52:55;50.50;;;25.97;;
18879;SDS011;9572;52.378;13.404;2023-04-10T02:55:21;56.03;;;26.20;;
18879;SDS011;9572;52.378;13.404;2023-04-10T02:57:48;49.10;;;26.23;;
18879;SDS011;9572;52.378;13.404;2023-04-10T03:00:16;48.27;;;25.83;;
18879;SDS011;9572;52.378;13.404;2023-04-10T03:02:44;45.40;;;24.87;;
18879;SDS011;9572;52.378;13.404;2023-04-10T03:05:11;52.17;;;27.73;;
18879;SDS011;9572;52.378;13.404;2023-04-10T03:07:38;49.27;;;26.03;;
18879;SDS011;9572;52.378;13.404;2023-04-10T03:10:07;49.93;;;26.77;;
18879;SDS011;9572;52.378;13.404;2023-04-10T03:12:34;46.90;;;25.43;;
18879;SDS011;9572;52.378;13.404;2023-04-10T03:15:01;55.73;;;26.20;;
18879;SDS011;9572;52.378;13.404;2023-04-10T03:17:30;45.13;;;23.83;;
18879;SDS011;9572;52.378;13.404;2023-04-10T03:19:57;43.57;;;24.67;;
18879;SDS011;9572;52.378;13.404;2023-04-10T03:22:24;46.80;;;24.83;;
18879;SDS011;9572;52.378;13.404;2023-04-10T03:24:51;49.33;;;25.37;;
18879;SDS011;9572;52.378;13.404;2023-04-10T03:27:19;44.67;;;25.43;;
18879;SDS011;9572;52.378;13.404;2023-04-10T03:29:49;47.80;;;25.77;;
18879;SDS011;9572;52.378;13.404;2023-04-10T03:32:20;50.30;;;26.53;;
18879;SDS011;9572;52.378;13.404;2023-04-10T03:34:47;68.53;;;31.97;;
18879;SDS011;9572;52.378;13.404;2023-04-10T03:37:14;63.50;;;30.23;;
18879;SDS011;9572;52.378;13.404;2023-04-10T03:39:41;61.63;;;29.93;;
18879;SDS011;9572;52.378;13.404;2023-04-10T03:42:09;57.27;;;27.37;;
18879;SDS011;9572;52.378;13.404;2023-04-10T03:44:37;54.37;;;27.20;;
18879;SDS011;9572;52.378;13.404;2023-04-10T03:47:09;50.43;;;26.53;;
18879;SDS011;9572;52.378;13.404;2023-04-10T03:49:39;54.97;;;28.33;;
18879;SDS011;9572;52.378;13.404;2023-04-10T03:52:09;57.73;;;28.30;;
18879;SDS011;9572;52.378;13.404;2023-04-10T03:54:40;55.83;;;27.17;;
18879;SDS011;9572;52.378;13.404;2023-04-10T03:57:10;50.40;;;26.23;;
18879;SDS011;9572;52.378;13.404;2023-04-10T03:59:45;50.73;;;27.77;;
18879;SDS011;9572;52.378;13.404;2023-04-10T04:02:12;54.67;;;27.27;;
18879;SDS011;9572;52.378;13.404;2023-04-10T04:04:40;49.53;;;25.20;;
18879;SDS011;9572;52.378;13.404;2023-04-10T04:07:09;42.00;;;24.13;;
18879;SDS011;9572;52.378;13.404;2023-04-10T04:09:40;44.87;;;22.63;;
18879;SDS011;9572;52.378;13.404;2023-04-10T04:12:10;52.73;;;27.30;;
18879;SDS011;9572;52.378;13.404;2023-04-10T04:14:40;54.50;;;26.87;;
18879;SDS011;9572;52.378;13.404;2023-04-10T04:17:15;43.13;;;24.13;;
18879;SDS011;9572;52.378;13.404;2023-04-10T04:19:42;49.90;;;24.13;;
18879;SDS011;9572;52.378;13.404;2023-04-10T04:22:10;43.17;;;24.10;;
18879;SDS011;9572;52.378;13.404;2023-04-10T04:24:40;44.53;;;23.93;;
18879;SDS011;9572;52.378;13.404;2023-04-10T04:27:10;41.80;;;24.03;;
18879;SDS011;9572;52.378;13.404;2023-04-10T04:29:40;42.30;;;24.47;;
18879;SDS011;9572;52.378;13.404;2023-04-10T04:32:15;42.20;;;23.70;;
18879;SDS011;9572;52.378;13.404;2023-04-10T04:34:42;35.87;;;21.23;;
18879;SDS011;9572;52.378;13.404;2023-04-10T04:37:10;37.60;;;22.80;;
18879;SDS011;9572;52.378;13.404;2023-04-10T04:39:40;36.77;;;22.37;;
18879;SDS011;9572;52.378;13.404;2023-04-10T04:42:10;34.00;;;20.70;;
18879;SDS011;9572;52.378;13.404;2023-04-10T04:44:40;40.87;;;24.60;;
18879;SDS011;9572;52.378;13.404;2023-04-10T04:47:15;40.33;;;24.90;;
18879;SDS011;9572;52.378;13.404;2023-04-10T04:49:42;40.17;;;23.70;;
18879;SDS011;9572;52.378;13.404;2023-04-10T04:52:10;37.07;;;22.80;;
18879;SDS011;9572;52.378;13.404;2023-04-10T04:54:40;36.37;;;23.43;;
18879;SDS011;9572;52.378;13.404;2023-04-10T04:57:10;39.73;;;23.80;;
18879;SDS011;9572;52.378;13.404;2023-04-10T04:59:40;37.10;;;22.97;;
18879;SDS011;9572;52.378;13.404;2023-04-10T05:02:15;32.40;;;22.17;;
18879;SDS011;9572;52.378;13.404;2023-04-10T05:04:42;35.37;;;22.00;;
18879;SDS011;9572;52.378;13.404;2023-04-10T05:07:10;30.67;;;20.27;;
18879;SDS011;9572;52.378;13.404;2023-04-10T05:09:40;34.13;;;21.83;;
18879;SDS011;9572;52.378;13.404;2023-04-10T05:12:10;32.47;;;21.67;;
18879;SDS011;9572;52.378;13.404;2023-04-10T05:14:40;31.03;;;20.80;;
18879;SDS011;9572;52.378;13.404;2023-04-10T05:17:15;31.00;;;20.20;;
18879;SDS011;9572;52.378;13.404;2023-04-10T05:19:42;28.87;;;19.77;;
18879;SDS011;9572;52.378;13.404;2023-04-10T05:22:10;32.63;;;21.50;;
18879;SDS011;9572;52.378;13.404;2023-04-10T05:24:40;30.50;;;20.73;;
18879;SDS011;9572;52.378;13.404;2023-04-10T05:27:10;29.03;;;19.53;;
18879;SDS011;9572;52.378;13.404;2023-04-10T05:29:40;35.50;;;22.67;;
18879;SDS011;9572;52.378;13.404;2023-04-10T05:32:15;28.93;;;19.83;;
18879;SDS011;9572;52.378;13.404;2023-04-10T05:34:42;30.73;;;20.60;;
18879;SDS011;9572;52.378;13.404;2023-04-10T05:37:10;31.80;;;22.20;;
18879;SDS011;9572;52.378;13.404;2023-04-10T05:39:40;32.90;;;22.03;;
18879;SDS011;9572;52.378;13.404;2023-04-10T05:42:10;31.73;;;22.30;;
18879;SDS011;9572;52.378;13.404;2023-04-10T05:44:40;33.20;;;21.60;;
18879;SDS011;9572;52.378;13.404;2023-04-10T05:47:10;29.50;;;20.07;;
18879;SDS011;9572;52.378;13.404;2023-04-10T05:52:33;34.00;;;21.37;;
18879;SDS011;9572;52.378;13.404;2023-04-10T05:55:00;37.30;;;21.80;;
18879;SDS011;9572;52.378;13.404;2023-04-10T05:57:30;39.20;;;21.33;;
18879;SDS011;9572;52.378;13.404;2023-04-10T06:00:00;35.37;;;22.33;;
18879;SDS011;9572;52.378;13.404;2023-04-10T06:02:30;34.77;;;22.10;;
18879;SDS011;9572;52.378;13.404;2023-04-10T06:04:59;32.30;;;21.23;;
18879;SDS011;9572;52.378;13.404;2023-04-10T06:07:35;33.00;;;22.10;;
18879;SDS011;9572;52.378;13.404;2023-04-10T06:10:02;34.27;;;21.03;;
18879;SDS011;9572;52.378;13.404;2023-04-10T06:12:30;34.63;;;21.53;;
18879;SDS011;9572;52.378;13.404;2023-04-10T06:15:00;33.97;;;21.13;;
18879;SDS011;9572;52.378;13.404;2023-04-10T06:17:30;32.07;;;21.37;;
18879;SDS011;9572;52.378;13.404;2023-04-10T06:20:01;32.83;;;20.77;;
18879;SDS011;9572;52.378;13.404;2023-04-10T06:22:35;30.13;;;20.23;;
18879;SDS011;9572;52.378;13.404;2023-04-10T06:25:02;33.43;;;20.83;;
18879;SDS011;9572;52.378;13.404;2023-04-10T06:27:30;34.37;;;21.83;;
18879;SDS011;9572;52.378;13.404;2023-04-10T06:30:00;35.70;;;21.33;;
18879;SDS011;9572;52.378;13.404;2023-04-10T06:32:30;41.73;;;25.27;;
18879;SDS011;9572;52.378;13.404;2023-04-10T06:34:59;38.77;;;23.70;;
18879;SDS011;9572;52.378;13.404;2023-04-10T06:37:26;41.87;;;24.53;;
18879;SDS011;9572;52.378;13.404;2023-04-10T06:40:06;42.30;;;24.97;;
18879;SDS011;9572;52.378;13.404;2023-04-10T06:42:34;42.37;;;25.50;;
18879;SDS011;9572;52.378;13.404;2023-04-10T06:45:01;36.73;;;23.23;;
18879;SDS011;9572;52.378;13.404;2023-04-10T06:47:30;37.97;;;22.80;;
18879;SDS011;9572;52.378;13.404;2023-04-10T06:50:00;43.00;;;25.80;;
18879;SDS011;9572;52.378;13.404;2023-04-10T06:52:27;38.50;;;24.80;;
18879;SDS011;9572;52.378;13.404;2023-04-10T06:54:53;42.13;;;25.03;;
18879;SDS011;9572;52.378;13.404;2023-04-10T06:57:25;38.67;;;25.93;;
18879;SDS011;9572;52.378;13.404;2023-04-10T06:59:52;42.77;;;26.47;;
18879;SDS011;9572;52.378;13.404;2023-04-10T07:02:19;47.10;;;27.07;;
18879;SDS011;9572;52.378;13.404;2023-04-10T07:04:50;39.13;;;24.13;;
18879;SDS011;9572;52.378;13.404;2023-04-10T07:07:20;47.60;;;27.13;;
18879;SDS011;9572;52.378;13.404;2023-04-10T07:09:50;48.50;;;28.63;;
18879;SDS011;9572;52.378;13.404;2023-04-10T07:12:25;44.43;;;26.33;;
18879;SDS011;9572;52.378;13.404;2023-04-10T07:14:52;44.10;;;26.00;;
18879;SDS011;9572;52.378;13.404;2023-04-10T07:17:19;48.40;;;27.67;;
18879;SDS011;9572;52.378;13.404;2023-04-10T07:19:46;49.23;;;28.47;;
18879;SDS011;9572;52.378;13.404;2023-04-10T07:22:13;44.50;;;26.97;;
18879;SDS011;9572;52.378;13.404;2023-04-10T07:24:40;48.00;;;27.80;;
18879;SDS011;9572;52.378;13.404;2023-04-10T07:27:08;51.17;;;27.40;;
18879;SDS011;9572;52.378;13.404;2023-04-10T07:29:37;44.17;;;26.97;;
18879;SDS011;9572;52.378;13.404;2023-04-10T07:32:04;47.07;;;26.83;;
18879;SDS011;9572;52.378;13.404;2023-04-10T07:34:31;43.67;;;26.50;;
18879;SDS011;9572;52.378;13.404;2023-04-10T07:36:58;49.13;;;27.23;;
18879;SDS011;9572;52.378;13.404;2023-04-10T07:39:25;47.50;;;28.40;;
18879;SDS011;9572;52.378;13.404;2023-04-10T07:41:52;43.60;;;25.23;;
18879;SDS011;9572;52.378;13.404;2023-04-10T07:44:19;41.73;;;26.07;;
18879;SDS011;9572;52.378;13.404;2023-04-10T07:46:48;45.03;;;27.37;;
18879;SDS011;9572;52.378;13.404;2023-04-10T07:49:16;40.43;;;25.67;;
18879;SDS011;9572;52.378;13.404;2023-04-10T07:51:43;39.80;;;25.13;;
18879;SDS011;9572;52.378;13.404;2023-04-10T07:54:09;40.97;;;24.97;;
18879;SDS011;9572;52.378;13.404;2023-04-10T07:56:36;43.60;;;25.67;;
18879;SDS011;9572;52.378;13.404;2023-04-10T07:59:04;41.17;;;25.00;;
18879;SDS011;9572;52.378;13.404;2023-04-10T08:01:31;44.97;;;25.67;;
18879;SDS011;9572;52.378;13.404;2023-04-10T08:03:59;39.93;;;23.80;;
18879;SDS011;9572;52.378;13.404;2023-04-10T08:06:27;41.53;;;24.67;;
18879;SDS011;9572;52.378;13.404;2023-04-10T08:08:53;47.88;;;27.15;;
18879;SDS011;9572;52.378;13.404;2023-04-10T08:11:21;43.30;;;26.53;;
18879;SDS011;9572;52.378;13.404;2023-04-10T08:13:50;42.65;;;25.27;;
18879;SDS011;9572;52.378;13.404;2023-04-10T08:16:17;43.35;;;24.95;;
18879;SDS011;9572;52.378;13.404;2023-04-10T08:18:47;40.38;;;25.10;;
18879;SDS011;9572;52.378;13.404;2023-04-10T08:21:15;38.90;;;23.38;;
18879;SDS011;9572;52.378;13.404;2023-04-10T08:23:42;43.08;;;24.92;;
18879;SDS011;9572;52.378;13.404;2023-04-10T08:26:10;40.38;;;24.55;;
18879;SDS011;9572;52.378;13.404;2023-04-10T08:28:37;40.60;;;24.05;;
18879;SDS011;9572;52.378;13.404;2023-04-10T08:31:04;38.38;;;23.33;;
18879;SDS011;9572;52.378;13.404;2023-04-10T08:33:31;41.47;;;23.60;;
18879;SDS011;9572;52.378;13.404;2023-04-10T08:35:58;43.80;;;24.65;;
18879;SDS011;9572;52.378;13.404;2023-04-10T08:38:26;43.17;;;23.83;;
18879;SDS011;9572;52.378;13.404;2023-04-10T08:40:53;36.53;;;21.77;;
18879;SDS011;9572;52.378;13.404;2023-04-10T08:43:20;35.70;;;21.90;;
18879;SDS011;9572;52.378;13.404;2023-04-10T08:45:47;36.10;;;21.80;;
18879;SDS011;9572;52.378;13.404;2023-04-10T08:48:15;34.60;;;20.83;;
18879;SDS011;9572;52.378;13.404;2023-04-10T08:50:44;32.08;;;20.00;;
18879;SDS011;9572;52.378;13.404;2023-04-10T08:53:12;37.92;;;20.60;;
18879;SDS011;9572;52.378;13.404;2023-04-10T08:55:41;36.28;;;21.17;;
18879;SDS011;9572;52.378;13.404;2023-04-10T08:58:10;35.72;;;20.15;;
18879;SDS011;9572;52.378;13.404;2023-04-10T09:00:38;32.88;;;20.15;;
18879;SDS011;9572;52.378;13.404;2023-04-10T09:03:06;26.45;;;15.15;;
18879;SDS011;9572;52.378;13.404;2023-04-10T09:05:35;25.15;;;15.27;;
18879;SDS011;9572;52.378;13.404;2023-04-10T09:08:03;26.20;;;15.82;;
18879;SDS011;9572;52.378;13.404;2023-04-10T09:10:30;25.98;;;15.95;;
18879;SDS011;9572;52.378;13.404;2023-04-10T09:12:58;27.13;;;14.27;;
18879;SDS011;9572;52.378;13.404;2023-04-10T09:15:25;24.52;;;14.35;;
18879;SDS011;9572;52.378;13.404;2023-04-10T09:17:55;24.42;;;14.20;;
18879;SDS011;9572;52.378;13.404;2023-04-10T09:20:24;21.50;;;13.43;;
18879;SDS011;9572;52.378;13.404;2023-04-10T09:22:51;25.08;;;14.77;;
18879;SDS011;9572;52.378;13.404;2023-04-10T09:25:31;23.80;;;14.50;;
18879;SDS011;9572;52.378;13.404;2023-04-10T09:28:02;23.02;;;13.95;;
18879;SDS011;9572;52.378;13.404;2023-04-10T09:30:34;24.38;;;14.10;;
18879;SDS011;9572;52.378;13.404;2023-04-10T09:33:01;21.73;;;12.65;;
18879;SDS011;9572;52.378;13.404;2023-04-10T09:35:35;15.75;;;11.40;;
18879;SDS011;9572;52.378;13.404;2023-04-10T09:38:12;17.95;;;12.10;;
18879;SDS011;9572;52.378;13.404;2023-04-10T09:40:41;21.48;;;13.65;;
18879;SDS011;9572;52.378;13.404;2023-04-10T09:43:19;23.27;;;13.18;;
18879;SDS011;9572;52.378;13.404;2023-04-10T09:45:49;17.65;;;11.18;;
18879;SDS011;9572;52.378;13.404;2023-04-10T09:48:17;18.90;;;12.07;;
18879;SDS011;9572;52.378;13.404;2023-04-10T09:50:44;20.52;;;13.15;;
18879;SDS011;9572;52.378;13.404;2023-04-10T09:53:12;19.23;;;13.80;;
18879;SDS011;9572;52.378;13.404;2023-04-10T09:55:40;21.17;;;12.77;;
18879;SDS011;9572;52.378;13.404;2023-04-10T09:58:08;20.52;;;13.65;;
18879;SDS011;9572;52.378;13.404;2023-04-10T10:00:38;22.85;;;12.38;;
18879;SDS011;9572;52.378;13.404;2023-04-10T10:03:06;19.77;;;11.45;;
18879;SDS011;9572;52.378;13.404;2023-04-10T10:05:35;18.30;;;11.88;;
18879;SDS011;9572;52.378;13.404;2023-04-10T10:08:04;18.45;;;11.88;;
18879;SDS011;9572;52.378;13.404;2023-04-10T10:10:32;20.88;;;12.27;;
18879;SDS011;9572;52.378;13.404;2023-04-10T10:13:01;17.55;;;11.45;;
18879;SDS011;9572;52.378;13.404;2023-04-10T10:15:30;18.23;;;11.70;;
18879;SDS011;9572;52.378;13.404;2023-04-10T10:18:12;16.42;;;10.40;;
18879;SDS011;9572;52.378;13.404;2023-04-10T10:20:45;16.02;;;10.30;;
18879;SDS011;9572;52.378;13.404;2023-04-10T10:23:13;15.65;;;8.55;;
18879;SDS011;9572;52.378;13.404;2023-04-10T10:25:42;16.83;;;8.98;;
18879;SDS011;9572;52.378;13.404;2023-04-10T10:28:11;14.02;;;9.55;;
18879;SDS011;9572;52.378;13.404;2023-04-10T10:30:39;14.65;;;9.93;;
18879;SDS011;9572;52.378;13.404;2023-04-10T10:33:07;16.10;;;8.85;;
18879;SDS011;9572;52.378;13.404;2023-04-10T10:35:35;16.38;;;9.90;;
18879;SDS011;9572;52.378;13.404;2023-04-10T10:38:03;17.92;;;9.57;;
18879;SDS011;9572;52.378;13.404;2023-04-10T10:40:30;13.85;;;9.43;;
18879;SDS011;9572;52.378;13.404;2023-04-10T10:43:03;17.02;;;9.30;;
18879;SDS011;9572;52.378;13.404;2023-04-10T10:45:36;17.85;;;9.75;;
18879;SDS011;9572;52.378;13.404;2023-04-10T10:48:11;15.07;;;9.68;;
18879;SDS011;9572;52.378;13.404;2023-04-10T10:50:49;17.05;;;9.45;;
18879;SDS011;9572;52.378;13.404;2023-04-10T10:59:01;16.90;;;9.63;;
18879;SDS011;9572;52.378;13.404;2023-04-10T11:01:28;18.38;;;8.75;;
18879;SDS011;9572;52.378;13.404;2023-04-10T11:03:56;13.55;;;9.05;;
18879;SDS011;9572;52.378;13.404;2023-04-10T11:12:15;13.07;;;8.75;;
18879;SDS011;9572;52.378;13.404;2023-04-10T11:14:44;12.23;;;8.63;;
18879;SDS011;9572;52.378;13.404;2023-04-10T11:20:14;14.27;;;8.95;;
18879;SDS011;9572;52.378;13.404;2023-04-10T11:25:44;15.70;;;9.50;;
18879;SDS011;9572;52.378;13.404;2023-04-10T11:31:17;12.48;;;8.65;;
18879;SDS011;9572;52.378;13.404;2023-04-10T11:33:46;17.60;;;10.18;;
18879;SDS011;9572;52.378;13.404;2023-04-10T11:36:15;23.30;;;9.60;;
18879;SDS011;9572;52.378;13.404;2023-04-10T11:38:52;14.60;;;9.40;;
18879;SDS011;9572;52.378;13.404;2023-04-10T11:41:22;14.75;;;9.50;;
18879;SDS011;9572;52.378;13.404;2023-04-10T11:43:52;15.10;;;9.60;;
18879;SDS011;9572;52.378;13.404;2023-04-10T11:46:19;16.48;;;10.45;;
18879;SDS011;9572;52.378;13.404;2023-04-10T11:48:46;14.48;;;9.90;;
18879;SDS011;9572;52.378;13.404;2023-04-10T11:51:18;15.65;;;10.27;;
18879;SDS011;9572;52.378;13.404;2023-04-10T11:53:45;14.90;;;9.38;;
18879;SDS011;9572;52.378;13.404;2023-04-10T11:56:17;14.85;;;8.52;;
18879;SDS011;9572;52.378;13.404;2023-04-10T11:58:49;12.18;;;8.75;;
18879;SDS011;9572;52.378;13.404;2023-04-10T12:01:19;13.73;;;8.63;;
18879;SDS011;9572;52.378;13.404;2023-04-10T12:03:47;9.98;;;8.13;;
18879;SDS011;9572;52.378;13.404;2023-04-10T12:06:14;17.45;;;8.05;;
18879;SDS011;9572;52.378;13.404;2023-04-10T12:08:45;13.35;;;8.38;;
18879;SDS011;9572;52.378;13.404;2023-04-10T12:11:14;15.77;;;8.93;;
18879;SDS011;9572;52.378;13.404;2023-04-10T12:13:44;13.10;;;8.07;;
18879;SDS011;9572;52.378;13.404;2023-04-10T12:16:12;14.68;;;7.82;;
18879;SDS011;9572;52.378;13.404;2023-04-10T12:18:39;13.98;;;7.93;;
18879;SDS011;9572;52.378;13.404;2023-04-10T12:21:07;11.77;;;7.22;;
18879;SDS011;9572;52.378;13.404;2023-04-10T12:23:35;11.48;;;6.45;;
18879;SDS011;9572;52.378;13.404;2023-04-10T12:26:09;10.98;;;6.63;;
18879;SDS011;9572;52.378;13.404;2023-04-10T12:28:38;10.38;;;6.95;;
18879;SDS011;9572;52.378;13.404;2023-04-10T12:31:07;10.65;;;6.97;;
18879;SDS011;9572;52.378;13.404;2023-04-10T12:33:34;10.57;;;6.82;;
18879;SDS011;9572;52.378;13.404;2023-04-10T12:36:01;15.48;;;6.78;;
18879;SDS011;9572;52.378;13.404;2023-04-10T12:38:35;12.20;;;7.10;;
18879;SDS011;9572;52.378;13.404;2023-04-10T12:41:03;12.13;;;6.53;;
18879;SDS011;9572;52.378;13.404;2023-04-10T12:43:32;10.80;;;6.38;;
18879;SDS011;9572;52.378;13.404;2023-04-10T12:46:00;9.35;;;5.97;;
18879;SDS011;9572;52.378;13.404;2023-04-10T12:48:28;9.82;;;5.75;;
18879;SDS011;9572;52.378;13.404;2023-04-10T12:50:55;10.70;;;6.40;;
18879;SDS011;9572;52.378;13.404;2023-04-10T12:53:22;10.98;;;6.15;;
18879;SDS011;9572;52.378;13.404;2023-04-10T12:55:56;12.15;;;6.15;;
18879;SDS011;9572;52.378;13.404;2023-04-10T12:58:29;11.30;;;6.18;;
18879;SDS011;9572;52.378;13.404;2023-04-10T13:00:58;11.65;;;7.75;;
18879;SDS011;9572;52.378;13.404;2023-04-10T13:03:29;8.98;;;6.22;;
18879;SDS011;9572;52.378;13.404;2023-04-10T13:05:56;13.35;;;7.32;;
18879;SDS011;9572;52.378;13.404;2023-04-10T13:08:23;10.10;;;6.63;;
18879;SDS011;9572;52.378;13.404;2023-04-10T13:10:50;10.73;;;6.35;;
18879;SDS011;9572;52.378;13.404;2023-04-10T13:13:17;11.30;;;6.90;;
18879;SDS011;9572;52.378;13.404;2023-04-10T13:15:43;12.15;;;7.25;;
18879;SDS011;9572;52.378;13.404;2023-04-10T13:18:12;10.32;;;7.30;;
18879;SDS011;9572;52.378;13.404;2023-04-10T13:20:39;12.00;;;7.07;;
18879;SDS011;9572;52.378;13.404;2023-04-10T13:23:06;12.27;;;7.68;;
18879;SDS011;9572;52.378;13.404;2023-04-10T13:25:35;12.25;;;6.90;;
18879;SDS011;9572;52.378;13.404;2023-04-10T13:28:03;8.63;;;6.88;;
18879;SDS011;9572;52.378;13.404;2023-04-10T13:30:34;12.32;;;6.95;;
18879;SDS011;9572;52.378;13.404;2023-04-10T13:33:02;11.63;;;7.25;;
18879;SDS011;9572;52.378;13.404;2023-04-10T13:35:30;14.05;;;7.50;;
18879;SDS011;9572;52.378;13.404;2023-04-10T13:37:57;17.80;;;9.05;;
18879;SDS011;9572;52.378;13.404;2023-04-10T13:40:25;8.85;;;6.78;;
18879;SDS011;9572;52.378;13.404;2023-04-10T13:42:52;15.27;;;9.40;;
18879;SDS011;9572;52.378;13.404;2023-04-10T13:45:19;11.88;;;7.35;;
18879;SDS011;9572;52.378;13.404;2023-04-10T13:47:46;12.18;;;6.65;;
18879;SDS011;9572;52.378;13.404;2023-04-10T13:50:12;10.85;;;6.63;;
18879;SDS011;9572;52.378;13.404;2023-04-10T13:52:41;8.48;;;6.38;;
18879;SDS011;9572;52.378;13.404;2023-04-10T13:55:08;12.88;;;6.82;;
18879;SDS011;9572;52.378;13.404;2023-04-10T13:57:35;12.13;;;6.45;;
18879;SDS011;9572;52.378;13.404;2023-04-10T14:00:02;11.45;;;6.65;;
18879;SDS011;9572;52.378;13.404;2023-04-10T14:02:30;10.55;;;6.72;;
18879;SDS011;9572;52.378;13.404;2023-04-10T14:04:57;9.80;;;6.93;;
18879;SDS011;9572;52.378;13.404;2023-04-10T14:07:24;10.90;;;6.70;;
18879;SDS011;9572;52.378;13.404;2023-04-10T14:09:53;11.35;;;6.60;;
18879;SDS011;9572;52.378;13.404;2023-04-10T14:12:19;10.48;;;5.82;;
18879;SDS011;9572;52.378;13.404;2023-04-10T14:14:47;8.32;;;5.78;;
18879;SDS011;9572;52.378;13.404;2023-04-10T14:17:14;12.05;;;7.38;;
18879;SDS011;9572;52.378;13.404;2023-04-10T14:19:41;11.60;;;7.05;;
18879;SDS011;9572;52.378;13.404;2023-04-10T14:22:07;9.73;;;7.15;;
18879;SDS011;9572;52.378;13.404;2023-04-10T14:24:34;10.25;;;6.45;;
18879;SDS011;9572;52.378;13.404;2023-04-10T14:27:03;12.73;;;6.55;;
18879;SDS011;9572;52.378;13.404;2023-04-10T14:29:30;9.43;;;6.30;;
18879;SDS011;9572;52.378;13.404;2023-04-10T14:31:57;10.32;;;7.50;;
18879;SDS011;9572;52.378;13.404;2023-04-10T14:34:24;11.57;;;7.05;;
18879;SDS011;9572;52.378;13.404;2023-04-10T14:36:51;10.30;;;6.90;;
18879;SDS011;9572;52.378;13.404;2023-04-10T14:39:20;10.90;;;6.82;;
18879;SDS011;9572;52.378;13.404;2023-04-10T14:41:48;9.38;;;6.80;;
18879;SDS011;9572;52.378;13.404;2023-04-10T14:44:17;9.63;;;6.38;;
18879;SDS011;9572;52.378;13.404;2023-04-10T14:46:44;10.45;;;7.15;;
18879;SDS011;9572;52.378;13.404;2023-04-10T14:49:11;9.88;;;7.63;;
18879;SDS011;9572;52.378;13.404;2023-04-10T14:51:41;14.95;;;8.18;;
18879;SDS011;9572;52.378;13.404;2023-04-10T14:54:08;9.45;;;7.13;;
18879;SDS011;9572;52.378;13.404;2023-04-10T14:56:35;11.43;;;7.85;;
18879;SDS011;9572;52.378;13.404;2023-04-10T14:59:02;8.85;;;6.95;;